sensor_id;sensor_type;location;lat;lon;timestamp;P1;durP1;ratioP1;P2;durP2;ratioP2
20731;SDS011;10527;52.124;5.196;2023-11-19T00:00:10;9.98;;;2.95;;
20731;SDS011;10527;52.124;5.196;2023-11-19T00:02:40;11.40;;;2.92;;
20731;SDS011;10527;52.124;5.196;2023-11-19T00:05:10;7.28;;;3.15;;
20731;SDS011;10527;52.124;5.196;2023-11-19T00:07:39;8.15;;;2.17;;
20731;SDS011;10527;52.124;5.196;2023-11-19T00:10:14;13.32;;;2.28;;
20731;SDS011;10527;52.124;5.196;2023-11-19T00:12:48;12.95;;;3.00;;
20731;SDS011;10527;52.124;5.196;2023-11-19T00:15:16;16.70;;;3.00;;
20731;SDS011;10527;52.124;5.196;2023-11-19T00:17:45;11.25;;;3.00;;
20731;SDS011;10527;52.124;5.196;2023-11-19T00:20:18;7.05;;;2.15;;
20731;SDS011;10527;52.124;5.196;2023-11-19T00:22:48;8.93;;;2.05;;
20731;SDS011;10527;52.124;5.196;2023-11-19T00:25:19;9.55;;;2.72;;
20731;SDS011;10527;52.124;5.196;2023-11-19T00:27:50;12.73;;;2.40;;
20731;SDS011;10527;52.124;5.196;2023-11-19T00:30:20;11.15;;;2.50;;
20731;SDS011;10527;52.124;5.196;2023-11-19T00:32:47;10.07;;;2.30;;
20731;SDS011;10527;52.124;5.196;2023-11-19T00:35:15;9.05;;;2.30;;
20731;SDS011;10527;52.124;5.196;2023-11-19T00:37:50;8.20;;;2.22;;
20731;SDS011;10527;52.124;5.196;2023-11-19T00:40:18;13.02;;;2.22;;
20731;SDS011;10527;52.124;5.196;2023-11-19T00:42:48;13.50;;;2.58;;
20731;SDS011;10527;52.124;5.196;2023-11-19T00:45:16;14.07;;;2.67;;
20731;SDS011;10527;52.124;5.196;2023-11-19T00:47:43;17.90;;;3.40;;
20731;SDS011;10527;52.124;5.196;2023-11-19T00:50:11;17.85;;;2.83;;
20731;SDS011;10527;52.124;5.196;2023-11-19T00:52:39;16.02;;;2.90;;
20731;SDS011;10527;52.124;5.196;2023-11-19T00:55:07;14.00;;;2.50;;
20731;SDS011;10527;52.124;5.196;2023-11-19T00:57:35;16.23;;;3.00;;
20731;SDS011;10527;52.124;5.196;2023-11-19T01:00:03;11.70;;;2.72;;
20731;SDS011;10527;52.124;5.196;2023-11-19T01:02:46;13.48;;;3.60;;
20731;SDS011;10527;52.124;5.196;2023-11-19T01:05:16;18.40;;;3.17;;
20731;SDS011;10527;52.124;5.196;2023-11-19T01:07:47;12.80;;;3.15;;
20731;SDS011;10527;52.124;5.196;2023-11-19T01:10:15;22.35;;;3.72;;
20731;SDS011;10527;52.124;5.196;2023-11-19T01:12:43;16.65;;;3.40;;
20731;SDS011;10527;52.124;5.196;2023-11-19T01:15:11;17.20;;;3.63;;
20731;SDS011;10527;52.124;5.196;2023-11-19T01:17:39;18.85;;;3.90;;
20731;SDS011;10527;52.124;5.196;2023-11-19T01:20:18;15.90;;;2.92;;
20731;SDS011;10527;52.124;5.196;2023-11-19T01:22:46;21.15;;;4.53;;
20731;SDS011;10527;52.124;5.196;2023-11-19T01:25:15;14.80;;;3.15;;
20731;SDS011;10527;52.124;5.196;2023-11-19T01:27:44;20.65;;;3.08;;
20731;SDS011;10527;52.124;5.196;2023-11-19T01:30:12;18.58;;;3.72;;
20731;SDS011;10527;52.124;5.196;2023-11-19T01:32:40;20.65;;;3.72;;
20731;SDS011;10527;52.124;5.196;2023-11-19T01:35:07;21.77;;;4.50;;
20731;SDS011;10527;52.124;5.196;2023-11-19T01:37:35;18.65;;;2.88;;
20731;SDS011;10527;52.124;5.196;2023-11-19T01:40:03;16.27;;;3.58;;
20731;SDS011;10527;52.124;5.196;2023-11-19T01:42:36;16.35;;;3.38;;
20731;SDS011;10527;52.124;5.196;2023-11-19T01:45:07;23.52;;;3.58;;
20731;SDS011;10527;52.124;5.196;2023-11-19T01:47:37;26.33;;;6.38;;
20731;SDS011;10527;52.124;5.196;2023-11-19T01:50:06;23.88;;;4.40;;
20731;SDS011;10527;52.124;5.196;2023-11-19T01:52:34;18.67;;;4.10;;
20731;SDS011;10527;52.124;5.196;2023-11-19T01:55:04;20.50;;;3.60;;
20731;SDS011;10527;52.124;5.196;2023-11-19T01:57:35;20.95;;;3.97;;
20731;SDS011;10527;52.124;5.196;2023-11-19T02:00:07;23.15;;;5.00;;
20731;SDS011;10527;52.124;5.196;2023-11-19T02:02:40;16.70;;;3.17;;
20731;SDS011;10527;52.124;5.196;2023-11-19T02:05:10;21.00;;;4.32;;
20731;SDS011;10527;52.124;5.196;2023-11-19T02:07:39;23.98;;;5.38;;
20731;SDS011;10527;52.124;5.196;2023-11-19T02:10:07;23.27;;;7.32;;
20731;SDS011;10527;52.124;5.196;2023-11-19T02:12:42;16.63;;;4.25;;
20731;SDS011;10527;52.124;5.196;2023-11-19T02:15:10;22.88;;;4.65;;
20731;SDS011;10527;52.124;5.196;2023-11-19T02:17:38;18.65;;;3.95;;
20731;SDS011;10527;52.124;5.196;2023-11-19T02:20:05;23.55;;;4.72;;
20731;SDS011;10527;52.124;5.196;2023-11-19T02:22:38;18.23;;;3.78;;
20731;SDS011;10527;52.124;5.196;2023-11-19T02:25:28;14.88;;;2.92;;
20731;SDS011;10527;52.124;5.196;2023-11-19T02:27:59;23.52;;;4.35;;
20731;SDS011;10527;52.124;5.196;2023-11-19T02:30:28;20.10;;;4.28;;
20731;SDS011;10527;52.124;5.196;2023-11-19T02:32:56;26.48;;;5.70;;
20731;SDS011;10527;52.124;5.196;2023-11-19T02:35:25;24.42;;;4.30;;
20731;SDS011;10527;52.124;5.196;2023-11-19T02:37:53;21.88;;;4.55;;
20731;SDS011;10527;52.124;5.196;2023-11-19T02:40:21;24.10;;;4.22;;
20731;SDS011;10527;52.124;5.196;2023-11-19T02:42:51;32.63;;;5.30;;
20731;SDS011;10527;52.124;5.196;2023-11-19T02:45:21;25.30;;;4.45;;
20731;SDS011;10527;52.124;5.196;2023-11-19T02:47:49;16.25;;;3.80;;
20731;SDS011;10527;52.124;5.196;2023-11-19T02:50:19;25.83;;;4.43;;
20731;SDS011;10527;52.124;5.196;2023-11-19T02:52:53;23.17;;;5.03;;
20731;SDS011;10527;52.124;5.196;2023-11-19T02:55:25;23.70;;;4.97;;
20731;SDS011;10527;52.124;5.196;2023-11-19T02:57:54;26.17;;;5.10;;
20731;SDS011;10527;52.124;5.196;2023-11-19T03:00:26;29.08;;;5.40;;
20731;SDS011;10527;52.124;5.196;2023-11-19T03:03:02;33.20;;;7.35;;
20731;SDS011;10527;52.124;5.196;2023-11-19T03:05:59;18.67;;;4.07;;
20731;SDS011;10527;52.124;5.196;2023-11-19T03:08:31;23.10;;;4.43;;
20731;SDS011;10527;52.124;5.196;2023-11-19T03:10:59;21.95;;;4.55;;
20731;SDS011;10527;52.124;5.196;2023-11-19T03:13:27;28.85;;;5.00;;
20731;SDS011;10527;52.124;5.196;2023-11-19T03:15:54;22.00;;;4.88;;
20731;SDS011;10527;52.124;5.196;2023-11-19T03:18:22;23.00;;;5.20;;
20731;SDS011;10527;52.124;5.196;2023-11-19T03:20:49;39.60;;;6.82;;
20731;SDS011;10527;52.124;5.196;2023-11-19T03:23:17;33.50;;;5.72;;
20731;SDS011;10527;52.124;5.196;2023-11-19T03:25:44;20.60;;;4.50;;
20731;SDS011;10527;52.124;5.196;2023-11-19T03:28:12;27.38;;;5.60;;
20731;SDS011;10527;52.124;5.196;2023-11-19T03:30:39;27.05;;;7.10;;
20731;SDS011;10527;52.124;5.196;2023-11-19T03:33:07;30.90;;;5.10;;
20731;SDS011;10527;52.124;5.196;2023-11-19T03:35:34;25.38;;;5.43;;
20731;SDS011;10527;52.124;5.196;2023-11-19T03:38:02;20.92;;;4.60;;
20731;SDS011;10527;52.124;5.196;2023-11-19T03:40:29;27.83;;;5.07;;
20731;SDS011;10527;52.124;5.196;2023-11-19T03:42:58;34.50;;;6.15;;
20731;SDS011;10527;52.124;5.196;2023-11-19T03:45:25;33.00;;;5.82;;
20731;SDS011;10527;52.124;5.196;2023-11-19T03:47:53;28.70;;;5.03;;
20731;SDS011;10527;52.124;5.196;2023-11-19T03:50:21;25.05;;;4.32;;
20731;SDS011;10527;52.124;5.196;2023-11-19T03:52:50;26.17;;;4.90;;
20731;SDS011;10527;52.124;5.196;2023-11-19T03:55:18;25.83;;;5.40;;
20731;SDS011;10527;52.124;5.196;2023-11-19T03:57:46;28.58;;;5.70;;
20731;SDS011;10527;52.124;5.196;2023-11-19T04:00:15;25.65;;;4.95;;
20731;SDS011;10527;52.124;5.196;2023-11-19T04:02:42;27.40;;;4.43;;
20731;SDS011;10527;52.124;5.196;2023-11-19T04:05:10;24.48;;;6.22;;
20731;SDS011;10527;52.124;5.196;2023-11-19T04:07:37;21.90;;;4.30;;
20731;SDS011;10527;52.124;5.196;2023-11-19T04:10:05;24.38;;;5.10;;
20731;SDS011;10527;52.124;5.196;2023-11-19T04:12:33;26.38;;;4.68;;
20731;SDS011;10527;52.124;5.196;2023-11-19T04:15:01;23.90;;;5.03;;
20731;SDS011;10527;52.124;5.196;2023-11-19T04:17:28;22.08;;;4.55;;
20731;SDS011;10527;52.124;5.196;2023-11-19T04:19:56;31.15;;;8.73;;
20731;SDS011;10527;52.124;5.196;2023-11-19T04:22:24;26.52;;;4.38;;
20731;SDS011;10527;52.124;5.196;2023-11-19T04:24:52;29.42;;;6.00;;
20731;SDS011;10527;52.124;5.196;2023-11-19T04:27:20;21.90;;;4.57;;
20731;SDS011;10527;52.124;5.196;2023-11-19T04:29:47;28.88;;;4.80;;
20731;SDS011;10527;52.124;5.196;2023-11-19T04:32:17;31.02;;;6.22;;
20731;SDS011;10527;52.124;5.196;2023-11-19T04:34:44;30.50;;;7.15;;
20731;SDS011;10527;52.124;5.196;2023-11-19T04:37:11;30.35;;;5.60;;
20731;SDS011;10527;52.124;5.196;2023-11-19T04:39:39;24.38;;;5.47;;
20731;SDS011;10527;52.124;5.196;2023-11-19T04:42:07;40.72;;;6.20;;
20731;SDS011;10527;52.124;5.196;2023-11-19T04:44:34;35.03;;;5.18;;
20731;SDS011;10527;52.124;5.196;2023-11-19T04:47:01;31.33;;;5.60;;
20731;SDS011;10527;52.124;5.196;2023-11-19T04:49:29;25.58;;;4.85;;
20731;SDS011;10527;52.124;5.196;2023-11-19T04:51:57;29.80;;;6.75;;
20731;SDS011;10527;52.124;5.196;2023-11-19T04:54:24;29.05;;;6.82;;
20731;SDS011;10527;52.124;5.196;2023-11-19T04:56:52;31.25;;;5.95;;
20731;SDS011;10527;52.124;5.196;2023-11-19T04:59:19;29.45;;;7.72;;
20731;SDS011;10527;52.124;5.196;2023-11-19T05:01:46;23.60;;;4.22;;
20731;SDS011;10527;52.124;5.196;2023-11-19T05:04:14;28.80;;;8.38;;
20731;SDS011;10527;52.124;5.196;2023-11-19T05:06:42;25.55;;;5.45;;
20731;SDS011;10527;52.124;5.196;2023-11-19T05:09:10;23.48;;;4.57;;
20731;SDS011;10527;52.124;5.196;2023-11-19T05:11:39;31.13;;;5.45;;
20731;SDS011;10527;52.124;5.196;2023-11-19T05:14:09;30.52;;;6.22;;
20731;SDS011;10527;52.124;5.196;2023-11-19T05:16:39;29.58;;;5.30;;
20731;SDS011;10527;52.124;5.196;2023-11-19T05:19:07;27.20;;;4.93;;
20731;SDS011;10527;52.124;5.196;2023-11-19T05:21:35;30.90;;;6.35;;
20731;SDS011;10527;52.124;5.196;2023-11-19T05:24:03;22.95;;;5.22;;
20731;SDS011;10527;52.124;5.196;2023-11-19T05:26:31;22.45;;;4.60;;
20731;SDS011;10527;52.124;5.196;2023-11-19T05:28:58;34.35;;;6.13;;
20731;SDS011;10527;52.124;5.196;2023-11-19T05:31:26;29.20;;;5.88;;
20731;SDS011;10527;52.124;5.196;2023-11-19T05:33:53;27.63;;;6.03;;
20731;SDS011;10527;52.124;5.196;2023-11-19T05:36:21;23.20;;;4.50;;
20731;SDS011;10527;52.124;5.196;2023-11-19T05:38:48;27.20;;;5.32;;
20731;SDS011;10527;52.124;5.196;2023-11-19T05:41:16;19.33;;;4.78;;
20731;SDS011;10527;52.124;5.196;2023-11-19T05:43:44;28.27;;;4.72;;
20731;SDS011;10527;52.124;5.196;2023-11-19T05:46:11;28.85;;;5.90;;
20731;SDS011;10527;52.124;5.196;2023-11-19T05:48:42;22.88;;;4.72;;
20731;SDS011;10527;52.124;5.196;2023-11-19T05:51:11;31.00;;;5.53;;
20731;SDS011;10527;52.124;5.196;2023-11-19T05:53:42;20.63;;;4.13;;
20731;SDS011;10527;52.124;5.196;2023-11-19T05:56:10;23.38;;;4.80;;
20731;SDS011;10527;52.124;5.196;2023-11-19T05:58:37;26.73;;;5.93;;
20731;SDS011;10527;52.124;5.196;2023-11-19T06:01:06;18.90;;;4.75;;
20731;SDS011;10527;52.124;5.196;2023-11-19T06:03:35;24.00;;;4.85;;
20731;SDS011;10527;52.124;5.196;2023-11-19T06:06:03;29.60;;;5.47;;
20731;SDS011;10527;52.124;5.196;2023-11-19T06:08:31;22.60;;;5.65;;
20731;SDS011;10527;52.124;5.196;2023-11-19T06:10:59;29.33;;;6.55;;
20731;SDS011;10527;52.124;5.196;2023-11-19T06:13:28;29.40;;;7.43;;
20731;SDS011;10527;52.124;5.196;2023-11-19T06:15:57;28.27;;;7.88;;
20731;SDS011;10527;52.124;5.196;2023-11-19T06:18:25;32.72;;;9.52;;
20731;SDS011;10527;52.124;5.196;2023-11-19T06:20:52;27.52;;;7.72;;
20731;SDS011;10527;52.124;5.196;2023-11-19T06:23:20;31.08;;;6.22;;
20731;SDS011;10527;52.124;5.196;2023-11-19T06:25:47;24.58;;;4.65;;
20731;SDS011;10527;52.124;5.196;2023-11-19T06:28:15;27.83;;;5.40;;
20731;SDS011;10527;52.124;5.196;2023-11-19T06:30:42;28.17;;;5.35;;
20731;SDS011;10527;52.124;5.196;2023-11-19T06:33:14;24.48;;;5.00;;
20731;SDS011;10527;52.124;5.196;2023-11-19T06:35:41;29.88;;;6.97;;
20731;SDS011;10527;52.124;5.196;2023-11-19T06:38:09;34.20;;;5.45;;
20731;SDS011;10527;52.124;5.196;2023-11-19T06:40:37;44.75;;;9.30;;
20731;SDS011;10527;52.124;5.196;2023-11-19T06:43:06;28.00;;;5.53;;
20731;SDS011;10527;52.124;5.196;2023-11-19T06:45:37;29.52;;;5.10;;
20731;SDS011;10527;52.124;5.196;2023-11-19T06:48:05;30.80;;;7.78;;
20731;SDS011;10527;52.124;5.196;2023-11-19T06:50:35;38.78;;;6.55;;
20731;SDS011;10527;52.124;5.196;2023-11-19T06:53:03;29.15;;;5.15;;
20731;SDS011;10527;52.124;5.196;2023-11-19T06:55:32;28.95;;;5.38;;
20731;SDS011;10527;52.124;5.196;2023-11-19T06:58:00;24.55;;;4.70;;
20731;SDS011;10527;52.124;5.196;2023-11-19T07:00:28;35.97;;;5.95;;
20731;SDS011;10527;52.124;5.196;2023-11-19T07:02:59;34.47;;;5.82;;
20731;SDS011;10527;52.124;5.196;2023-11-19T07:05:26;25.42;;;4.40;;
20731;SDS011;10527;52.124;5.196;2023-11-19T07:07:54;21.27;;;5.10;;
20731;SDS011;10527;52.124;5.196;2023-11-19T07:10:22;28.40;;;5.22;;
20731;SDS011;10527;52.124;5.196;2023-11-19T07:12:49;25.88;;;5.32;;
20731;SDS011;10527;52.124;5.196;2023-11-19T07:15:16;24.92;;;4.97;;
20731;SDS011;10527;52.124;5.196;2023-11-19T07:17:47;20.00;;;4.25;;
20731;SDS011;10527;52.124;5.196;2023-11-19T07:20:29;27.55;;;5.03;;
20731;SDS011;10527;52.124;5.196;2023-11-19T07:22:57;21.75;;;5.38;;
20731;SDS011;10527;52.124;5.196;2023-11-19T07:25:24;29.98;;;5.53;;
20731;SDS011;10527;52.124;5.196;2023-11-19T07:27:53;25.50;;;4.82;;
20731;SDS011;10527;52.124;5.196;2023-11-19T07:30:20;26.80;;;5.53;;
20731;SDS011;10527;52.124;5.196;2023-11-19T07:32:48;25.00;;;5.93;;
20731;SDS011;10527;52.124;5.196;2023-11-19T07:35:16;26.55;;;5.60;;
20731;SDS011;10527;52.124;5.196;2023-11-19T07:37:47;28.83;;;5.72;;
20731;SDS011;10527;52.124;5.196;2023-11-19T07:40:16;30.80;;;5.15;;
20731;SDS011;10527;52.124;5.196;2023-11-19T07:42:44;30.38;;;5.70;;
20731;SDS011;10527;52.124;5.196;2023-11-19T07:45:11;26.90;;;6.15;;
20731;SDS011;10527;52.124;5.196;2023-11-19T07:47:39;27.77;;;4.57;;
20731;SDS011;10527;52.124;5.196;2023-11-19T07:50:07;28.13;;;4.93;;
20731;SDS011;10527;52.124;5.196;2023-11-19T07:52:35;25.80;;;4.72;;
20731;SDS011;10527;52.124;5.196;2023-11-19T07:55:03;25.08;;;4.72;;
20731;SDS011;10527;52.124;5.196;2023-11-19T07:57:31;26.33;;;5.70;;
20731;SDS011;10527;52.124;5.196;2023-11-19T07:59:58;30.92;;;5.57;;
20731;SDS011;10527;52.124;5.196;2023-11-19T08:02:27;23.85;;;5.25;;
20731;SDS011;10527;52.124;5.196;2023-11-19T08:04:55;27.20;;;4.53;;
20731;SDS011;10527;52.124;5.196;2023-11-19T08:07:23;33.15;;;4.90;;
20731;SDS011;10527;52.124;5.196;2023-11-19T08:09:50;27.45;;;5.75;;
20731;SDS011;10527;52.124;5.196;2023-11-19T08:12:17;32.22;;;6.45;;
20731;SDS011;10527;52.124;5.196;2023-11-19T08:14:47;24.00;;;5.07;;
20731;SDS011;10527;52.124;5.196;2023-11-19T08:17:16;26.40;;;6.60;;
20731;SDS011;10527;52.124;5.196;2023-11-19T08:19:52;27.95;;;5.43;;
20731;SDS011;10527;52.124;5.196;2023-11-19T08:22:19;24.05;;;5.53;;
20731;SDS011;10527;52.124;5.196;2023-11-19T08:24:47;20.30;;;4.07;;
20731;SDS011;10527;52.124;5.196;2023-11-19T08:27:15;30.58;;;5.07;;
20731;SDS011;10527;52.124;5.196;2023-11-19T08:29:47;33.33;;;6.00;;
20731;SDS011;10527;52.124;5.196;2023-11-19T08:32:15;28.48;;;6.20;;
20731;SDS011;10527;52.124;5.196;2023-11-19T08:34:45;30.55;;;7.15;;
20731;SDS011;10527;52.124;5.196;2023-11-19T08:37:12;23.00;;;4.68;;
20731;SDS011;10527;52.124;5.196;2023-11-19T08:39:40;23.33;;;4.68;;
20731;SDS011;10527;52.124;5.196;2023-11-19T08:42:09;30.23;;;6.22;;
20731;SDS011;10527;52.124;5.196;2023-11-19T08:44:37;24.38;;;5.22;;
20731;SDS011;10527;52.124;5.196;2023-11-19T08:49:51;24.90;;;5.57;;
20731;SDS011;10527;52.124;5.196;2023-11-19T08:52:22;25.25;;;5.22;;
20731;SDS011;10527;52.124;5.196;2023-11-19T08:54:49;35.25;;;6.07;;
20731;SDS011;10527;52.124;5.196;2023-11-19T08:57:17;26.80;;;6.75;;
20731;SDS011;10527;52.124;5.196;2023-11-19T08:59:44;27.58;;;4.55;;
20731;SDS011;10527;52.124;5.196;2023-11-19T09:02:12;32.60;;;4.93;;
20731;SDS011;10527;52.124;5.196;2023-11-19T09:04:40;25.33;;;5.53;;
20731;SDS011;10527;52.124;5.196;2023-11-19T09:07:16;28.73;;;4.68;;
20731;SDS011;10527;52.124;5.196;2023-11-19T09:09:43;26.83;;;5.18;;
20731;SDS011;10527;52.124;5.196;2023-11-19T09:12:19;26.15;;;5.15;;
20731;SDS011;10527;52.124;5.196;2023-11-19T09:14:55;21.95;;;4.35;;
20731;SDS011;10527;52.124;5.196;2023-11-19T09:17:23;23.25;;;4.63;;
20731;SDS011;10527;52.124;5.196;2023-11-19T09:19:52;24.38;;;5.40;;
20731;SDS011;10527;52.124;5.196;2023-11-19T09:22:20;27.90;;;4.93;;
20731;SDS011;10527;52.124;5.196;2023-11-19T09:24:48;23.73;;;4.63;;
20731;SDS011;10527;52.124;5.196;2023-11-19T09:27:16;19.42;;;4.55;;
20731;SDS011;10527;52.124;5.196;2023-11-19T09:29:43;25.63;;;5.40;;
20731;SDS011;10527;52.124;5.196;2023-11-19T09:32:13;27.25;;;5.18;;
20731;SDS011;10527;52.124;5.196;2023-11-19T09:34:40;24.70;;;5.38;;
20731;SDS011;10527;52.124;5.196;2023-11-19T09:37:22;26.38;;;4.32;;
20731;SDS011;10527;52.124;5.196;2023-11-19T09:39:50;26.70;;;5.60;;
20731;SDS011;10527;52.124;5.196;2023-11-19T09:42:19;26.92;;;5.72;;
20731;SDS011;10527;52.124;5.196;2023-11-19T09:44:47;25.23;;;5.53;;
20731;SDS011;10527;52.124;5.196;2023-11-19T09:47:16;26.80;;;5.03;;
20731;SDS011;10527;52.124;5.196;2023-11-19T09:49:45;32.30;;;5.78;;
20731;SDS011;10527;52.124;5.196;2023-11-19T09:52:14;21.80;;;4.18;;
20731;SDS011;10527;52.124;5.196;2023-11-19T09:54:42;34.05;;;6.25;;
20731;SDS011;10527;52.124;5.196;2023-11-19T09:57:09;26.48;;;5.50;;
20731;SDS011;10527;52.124;5.196;2023-11-19T09:59:39;23.77;;;4.72;;
20731;SDS011;10527;52.124;5.196;2023-11-19T10:02:07;27.88;;;5.07;;
20731;SDS011;10527;52.124;5.196;2023-11-19T10:04:37;27.77;;;4.93;;
20731;SDS011;10527;52.124;5.196;2023-11-19T10:07:20;22.15;;;5.13;;
20731;SDS011;10527;52.124;5.196;2023-11-19T10:09:56;20.58;;;5.03;;
20731;SDS011;10527;52.124;5.196;2023-11-19T10:12:24;27.08;;;4.68;;
20731;SDS011;10527;52.124;5.196;2023-11-19T10:14:52;23.52;;;5.13;;
20731;SDS011;10527;52.124;5.196;2023-11-19T10:17:26;27.55;;;4.65;;
20731;SDS011;10527;52.124;5.196;2023-11-19T10:19:56;22.77;;;4.13;;
20731;SDS011;10527;52.124;5.196;2023-11-19T10:22:27;31.98;;;6.57;;
20731;SDS011;10527;52.124;5.196;2023-11-19T10:24:55;27.85;;;4.38;;
20731;SDS011;10527;52.124;5.196;2023-11-19T10:27:25;26.42;;;5.20;;
20731;SDS011;10527;52.124;5.196;2023-11-19T10:29:53;19.27;;;3.88;;
20731;SDS011;10527;52.124;5.196;2023-11-19T10:32:21;21.95;;;4.20;;
20731;SDS011;10527;52.124;5.196;2023-11-19T10:35:28;22.00;;;4.70;;
20731;SDS011;10527;52.124;5.196;2023-11-19T10:37:55;23.05;;;5.05;;
20731;SDS011;10527;52.124;5.196;2023-11-19T10:40:37;23.65;;;4.60;;
20731;SDS011;10527;52.124;5.196;2023-11-19T10:43:08;23.63;;;4.88;;
20731;SDS011;10527;52.124;5.196;2023-11-19T10:45:36;24.75;;;4.93;;
20731;SDS011;10527;52.124;5.196;2023-11-19T10:48:17;18.42;;;3.88;;
20731;SDS011;10527;52.124;5.196;2023-11-19T10:50:45;23.13;;;4.55;;
20731;SDS011;10527;52.124;5.196;2023-11-19T10:53:16;20.65;;;3.58;;
20731;SDS011;10527;52.124;5.196;2023-11-19T10:55:47;22.35;;;4.07;;
20731;SDS011;10527;52.124;5.196;2023-11-19T10:58:15;23.05;;;4.65;;
20731;SDS011;10527;52.124;5.196;2023-11-19T11:03:19;33.80;;;5.43;;
20731;SDS011;10527;52.124;5.196;2023-11-19T11:05:48;21.77;;;4.88;;
20731;SDS011;10527;52.124;5.196;2023-11-19T11:11:15;22.20;;;3.38;;
20731;SDS011;10527;52.124;5.196;2023-11-19T11:13:51;26.42;;;4.32;;
20731;SDS011;10527;52.124;5.196;2023-11-19T11:16:24;27.60;;;4.57;;
20731;SDS011;10527;52.124;5.196;2023-11-19T11:18:54;30.98;;;6.45;;
20731;SDS011;10527;52.124;5.196;2023-11-19T11:21:22;20.92;;;4.90;;
20731;SDS011;10527;52.124;5.196;2023-11-19T11:23:56;19.88;;;4.82;;
20731;SDS011;10527;52.124;5.196;2023-11-19T11:29:41;24.08;;;4.68;;
20731;SDS011;10527;52.124;5.196;2023-11-19T11:32:37;24.50;;;5.15;;
20731;SDS011;10527;52.124;5.196;2023-11-19T11:35:31;24.23;;;4.40;;
20731;SDS011;10527;52.124;5.196;2023-11-19T11:38:28;21.60;;;3.72;;
20731;SDS011;10527;52.124;5.196;2023-11-19T11:41:18;27.27;;;4.35;;
20731;SDS011;10527;52.124;5.196;2023-11-19T11:44:00;22.15;;;4.18;;
20731;SDS011;10527;52.124;5.196;2023-11-19T11:49:05;27.90;;;7.68;;
20731;SDS011;10527;52.124;5.196;2023-11-19T11:59:50;19.95;;;4.60;;
20731;SDS011;10527;52.124;5.196;2023-11-19T12:02:22;22.92;;;4.38;;
20731;SDS011;10527;52.124;5.196;2023-11-19T12:04:52;17.50;;;4.80;;
20731;SDS011;10527;52.124;5.196;2023-11-19T12:07:21;20.55;;;4.70;;
20731;SDS011;10527;52.124;5.196;2023-11-19T12:09:55;22.77;;;5.07;;
20731;SDS011;10527;52.124;5.196;2023-11-19T12:15:31;21.13;;;4.05;;
20731;SDS011;10527;52.124;5.196;2023-11-19T12:17:59;25.45;;;4.20;;
20731;SDS011;10527;52.124;5.196;2023-11-19T12:20:26;18.63;;;4.30;;
20731;SDS011;10527;52.124;5.196;2023-11-19T12:23:00;16.52;;;4.07;;
20731;SDS011;10527;52.124;5.196;2023-11-19T12:25:33;19.13;;;3.78;;
20731;SDS011;10527;52.124;5.196;2023-11-19T12:28:02;16.92;;;4.15;;
20731;SDS011;10527;52.124;5.196;2023-11-19T12:30:31;18.45;;;3.70;;
20731;SDS011;10527;52.124;5.196;2023-11-19T12:32:59;17.13;;;3.47;;
20731;SDS011;10527;52.124;5.196;2023-11-19T12:35:26;12.80;;;3.60;;
20731;SDS011;10527;52.124;5.196;2023-11-19T12:37:54;20.02;;;3.42;;
20731;SDS011;10527;52.124;5.196;2023-11-19T12:40:22;18.75;;;3.95;;
20731;SDS011;10527;52.124;5.196;2023-11-19T12:42:55;16.52;;;3.30;;
20731;SDS011;10527;52.124;5.196;2023-11-19T12:45:24;23.55;;;4.85;;
20731;SDS011;10527;52.124;5.196;2023-11-19T12:48:04;20.67;;;4.20;;
20731;SDS011;10527;52.124;5.196;2023-11-19T12:50:51;17.92;;;3.58;;
20731;SDS011;10527;52.124;5.196;2023-11-19T12:53:24;17.55;;;3.65;;
20731;SDS011;10527;52.124;5.196;2023-11-19T12:55:53;16.85;;;3.25;;
20731;SDS011;10527;52.124;5.196;2023-11-19T13:01:06;14.95;;;2.83;;
20731;SDS011;10527;52.124;5.196;2023-11-19T13:03:34;16.35;;;3.60;;
20731;SDS011;10527;52.124;5.196;2023-11-19T13:06:06;19.60;;;3.15;;
20731;SDS011;10527;52.124;5.196;2023-11-19T13:08:44;17.75;;;6.05;;
20731;SDS011;10527;52.124;5.196;2023-11-19T13:11:17;22.83;;;5.28;;
20731;SDS011;10527;52.124;5.196;2023-11-19T13:14:04;14.27;;;3.15;;
20731;SDS011;10527;52.124;5.196;2023-11-19T13:16:36;16.88;;;3.00;;
20731;SDS011;10527;52.124;5.196;2023-11-19T13:19:04;19.70;;;3.42;;
20731;SDS011;10527;52.124;5.196;2023-11-19T13:21:31;17.95;;;3.80;;
20731;SDS011;10527;52.124;5.196;2023-11-19T13:24:00;18.85;;;4.00;;
20731;SDS011;10527;52.124;5.196;2023-11-19T13:26:27;19.58;;;2.85;;
20731;SDS011;10527;52.124;5.196;2023-11-19T13:28:54;18.05;;;4.25;;
20731;SDS011;10527;52.124;5.196;2023-11-19T13:31:22;22.27;;;4.03;;
20731;SDS011;10527;52.124;5.196;2023-11-19T13:33:50;20.40;;;4.70;;
20731;SDS011;10527;52.124;5.196;2023-11-19T13:36:18;19.00;;;3.45;;
20731;SDS011;10527;52.124;5.196;2023-11-19T13:38:48;17.08;;;3.42;;
20731;SDS011;10527;52.124;5.196;2023-11-19T13:41:17;20.00;;;4.72;;
20731;SDS011;10527;52.124;5.196;2023-11-19T13:43:45;23.83;;;4.35;;
20731;SDS011;10527;52.124;5.196;2023-11-19T13:46:12;19.90;;;3.35;;
20731;SDS011;10527;52.124;5.196;2023-11-19T13:48:40;16.60;;;3.30;;
20731;SDS011;10527;52.124;5.196;2023-11-19T13:51:09;21.15;;;4.43;;
20731;SDS011;10527;52.124;5.196;2023-11-19T13:53:36;17.17;;;3.55;;
20731;SDS011;10527;52.124;5.196;2023-11-19T13:56:07;22.77;;;4.32;;
20731;SDS011;10527;52.124;5.196;2023-11-19T13:58:34;25.88;;;4.65;;
20731;SDS011;10527;52.124;5.196;2023-11-19T14:01:03;19.25;;;4.22;;
20731;SDS011;10527;52.124;5.196;2023-11-19T14:03:31;19.08;;;3.60;;
20731;SDS011;10527;52.124;5.196;2023-11-19T14:06:00;21.02;;;5.15;;
20731;SDS011;10527;52.124;5.196;2023-11-19T14:08:29;16.95;;;4.50;;
20731;SDS011;10527;52.124;5.196;2023-11-19T14:13:29;17.10;;;4.32;;
20731;SDS011;10527;52.124;5.196;2023-11-19T14:15:56;18.75;;;4.47;;
20731;SDS011;10527;52.124;5.196;2023-11-19T14:18:24;13.52;;;2.45;;
20731;SDS011;10527;52.124;5.196;2023-11-19T14:20:54;17.85;;;3.75;;
20731;SDS011;10527;52.124;5.196;2023-11-19T14:23:24;16.92;;;3.72;;
20731;SDS011;10527;52.124;5.196;2023-11-19T14:25:54;21.65;;;3.60;;
20731;SDS011;10527;52.124;5.196;2023-11-19T14:28:22;22.40;;;5.10;;
20731;SDS011;10527;52.124;5.196;2023-11-19T14:30:51;20.80;;;3.88;;
20731;SDS011;10527;52.124;5.196;2023-11-19T14:33:23;15.27;;;3.13;;
20731;SDS011;10527;52.124;5.196;2023-11-19T14:35:50;14.00;;;2.88;;
20731;SDS011;10527;52.124;5.196;2023-11-19T14:38:18;35.20;;;5.53;;
20731;SDS011;10527;52.124;5.196;2023-11-19T14:40:46;22.92;;;4.15;;
20731;SDS011;10527;52.124;5.196;2023-11-19T14:43:14;24.58;;;5.00;;
20731;SDS011;10527;52.124;5.196;2023-11-19T14:45:42;25.20;;;4.90;;
20731;SDS011;10527;52.124;5.196;2023-11-19T14:48:16;20.85;;;4.50;;
20731;SDS011;10527;52.124;5.196;2023-11-19T14:50:44;19.05;;;3.65;;
20731;SDS011;10527;52.124;5.196;2023-11-19T14:53:11;18.35;;;4.05;;
20731;SDS011;10527;52.124;5.196;2023-11-19T14:55:39;20.92;;;5.30;;
20731;SDS011;10527;52.124;5.196;2023-11-19T14:58:06;16.10;;;3.97;;
20731;SDS011;10527;52.124;5.196;2023-11-19T15:00:37;24.92;;;4.78;;
20731;SDS011;10527;52.124;5.196;2023-11-19T15:03:05;16.42;;;3.92;;
20731;SDS011;10527;52.124;5.196;2023-11-19T15:05:33;24.25;;;4.63;;
20731;SDS011;10527;52.124;5.196;2023-11-19T15:08:01;23.33;;;4.95;;
20731;SDS011;10527;52.124;5.196;2023-11-19T15:10:29;25.30;;;4.35;;
20731;SDS011;10527;52.124;5.196;2023-11-19T15:12:57;25.30;;;4.90;;
20731;SDS011;10527;52.124;5.196;2023-11-19T15:15:24;23.33;;;4.18;;
20731;SDS011;10527;52.124;5.196;2023-11-19T15:17:54;28.52;;;4.88;;
20731;SDS011;10527;52.124;5.196;2023-11-19T15:20:22;23.45;;;4.30;;